This site, now in its 15th season, is a labour of love and fun from one of Ottawa's most avid time trialists and number crunchers. It adheres to and is permitted by the laws of Canada, promotes the objectives of every bicycle club whose results are shown, and is donated free of charge by myself for your enjoyment and usage. If you would like results from series you ride in to be shown here, give me (celia@drmath.ca) a shout!


Index Page
ATT OTT WTT CFCTT VVVTT
Help resultformat:
Case-sensitive

OBC Open TT Series - 2011-Jul-07 - 15km (Rockliffe Pkwy) (EvtFactor = 0.9609)

Weather (18:00): Partly Cloudy. Temp.: 23C, Humidity: 41%, Dew Point: 9C, Wind: W 4km/h, Pressure: 101.5kPa, Visibility: 24km.
Weather (19:00): Partly Cloudy. Temp.: 23C, Humidity: 41%, Dew Point: 9C, Wind: W 9km/h, Pressure: 101.5kPa, Visibility: 24km.
Weather (20:00): Partly Cloudy. Temp.: 22C, Humidity: 42%, Dew Point: 9C, Wind: 0km/h, Pressure: 101.4kPa, Visibility: 24km.

Send photos with description (when/where/what) of yourself on or off of bike to celia@drmath.ca



These results were posted on the OBC site circa 18:30 on 2011-Jul-09 and are available here fork your added pleasure and analysis.

(Lest complaints about me just lazily sucking in the results surface, I wish to make it perfectly clear that I would gladly do the data entry, getting the results up within a few of hours of the event, as history shows that I did for the WTT series for the decade beginning in 1998, and for the OTT series from 1999-2002 and again in 2006. The OBC Board however, not only won't let me volunteer here, but strangely enough they actually expelled me from the OBC for donating this time trial web site to you !)

 
 

BESTS?
 
1 MacDonald, Warren  NTF 18:43 48.085 1/104 VAM 1/15 0.9761
2 Amos, Ron  OBC/RWR 19:20 46.552 2/104 VBM 1/20 0.9820
3 Bergeron, Philippe  OBC 19:37 45.879 3/104 SEM 1/8 1.0257
4 Gee, Jon OBC 19:38 45.840 4/104 VBM 2/20 1.0757
5 Hawkes, Craig CYC 19:45 45.570 5/104 VAM 2/15 1.0359
6 Proulx, Steve  CYC 19:53 45.264 6/104 VBM 3/20 1.0960
7 Schlatter, Sue  SRC 19:56 45.151 7/104 VBF 1/8 1.0025
8 Michel, Alexandre  TTC 19:59 45.038 8/104 VAM 3/15 1.1142
9 Sudac, Rick  OBC/RWR 20:19 44.299 9/104 VDM 1/9 0.9829
10 Ferguson, James OBC 20:24 44.118 10/104 VCM 1/27 1.0123
11 Beard, Duncan NTF 20:27 44.010 11/104 VAM 4/15 0.9686
12 Hamilton, Peter OBC 20:33 43.796 12/104 VBM 4/20 0.9759
13 Andrew, Ben OBC 20:34 43.760 13/104 SEM 2/8  
Pérès, Erwan --- 20:34 43.760 13/104 VBM 5/20 0.9451
15 Tsilemos, Jim RWR 20:37 43.654 15/104 VBM 6/20 0.9641
16 Campbell, Colin  OBC 20:38 43.619 16/104 VCM 2/27 1.0393
17 Tregunno, Peter  OBC 20:40 43.548 17/104 VAM 5/15 1.2256
18 Budgell, Glen  OBC 20:41 43.513 18/104 VCM 3/27 1.0516
19 Bent, Lucas OBC 20:54 43.062 19/104 SEM 3/8 1.1348
20 Mullington, Chris WQW 20:59 42.891 20/104 VCM 4/27 0.9740
21 Sugden, David OBC/RDO 21:00 42.857 21/104 VBM 7/20 1.0168
22 Conly, Cuylar --- 21:06 42.654 22/104 SEM 4/8 0.7873
23 Olson, Chris NTF 21:08 42.587 23/104 VBM 8/20 0.9836
24 Christie, Greg  OBC/RWR 21:11 42.486 24/104 VCM 5/27  
25 Pihlainen, Matti FC 21:13 42.419 25/104 SEM 5/8 0.9399
26 Breton, Bernard OBC 21:18 42.254 26/104 VBM 9/20 1.1120
27 Robitaille, Brian  OBC/FC 21:24 42.056 27/104 VBM 10/20 1.0693
28 DeVidi, Robert  OBC 21:31 41.828 28/104 VBM 11/20 1.0329
Gagnon, Alexandre  OBC 21:31 41.828 28/104 SEM 6/8 0.9769
30 Schuck, Peter  OBC 21:34 41.731 30/104 VCM 6/27 1.1507
31 Chedore, Paul CLG 21:38 41.602 31/104 VBM 12/20  
Couturier-Lamy, Felix --- 21:38 41.602 31/104 CAM 1/1 0.9861
33 Burge, Craig  CYC 21:41 41.507 33/104 VCM 7/27 1.0374
Cordier, Gilles & Lafrenière, Julie IND 21:41 41.507 33/104 TTT 1/1  
35 Gerrard, David  OBC 21:43 41.443 35/104 VCM 8/27 0.9704
36 Bunn, Melissa SRC 21:45 41.379 36/104 SEF 1/3  
37 Dorego, Jean-Louis OBC 21:51 41.190 37/104 VDM 2/9 0.9773
38 Dion, Brian OBC 21:52 41.159 38/104 VAM 6/15 1.0630
39 Henschel, Peter OBC 21:55 41.065 39/104 VCM 9/27  
40 Willis, Harrison FC 21:56 41.033 40/104 SEM 7/8  
41 Blais, Bob --- 21:59 40.940 41/104 VCM 10/27 1.0183
42 Bourgon, Veronik  OBC 22:07 40.693 42/104 SEF 2/3 1.1271
43 Gee, Derek  OBC 22:11 40.571 43/104 MIM 1/2 1.0296
Scripter, Daniel OBC 22:11 40.571 43/104 VCM 11/27 0.9666
45 McKay, Andrea  OBC 22:22 40.238 45/104 VBF 2/8 1.0157
46 Young, Paul  OBC 22:32 39.941 46/104 VBM 13/20 1.1199
47 Gagnon, Jules OBC 22:33 39.911 47/104 VCM 12/27 1.2591
48 Moerman, Bram  OBC 22:38 39.764 48/104 VDM 3/9 1.0335
Schattmann, Peter OBC 22:38 39.764 48/104 VCM 13/27 1.0700
50 Padilla, Alberto --- 22:39 39.735 50/104 VCM 14/27  
51 Boulanger, Gaetan  IND 22:44 39.589 51/104 VDM 4/9 1.0176
52 Buffa, Alex  OBC 22:58 39.187 52/104 VAM 7/15 1.1796
53 Knowles, Kelly  OBC 22:59 39.159 53/104 VBF 3/8 1.0286
54 Pehleman, Bob  OBC 23:05 38.989 54/104 VCM 15/27 1.1357
55 Hanington, James CLG 23:07 38.933 55/104 SEM 8/8 0.9679
56 Kerckhoff, Hermann  RWR 23:08 38.905 56/104 VEM 1/3 0.9743
57 Basu, Ben  OBC 23:14 38.737 57/104 VBM 14/20 1.0108
Hiscocks, Mark OBC 23:14 38.737 57/104 VAM 8/15 1.0908
59 D'Aoust, Sylvie  CYF 23:20 38.571 59/104 VBF 4/8 1.1248
60 Davis, Stephen EUR 23:21 38.544 60/104 VBM 15/20 1.1178
Deavy, Carol  OBC 23:21 38.544 60/104 VBF 5/8 1.0746
62 Burdett, Avery  OBC 23:22 38.516 62/104 VEM 2/3 1.0258
Deschamps, Martin WQW 23:22 38.516 62/104 VAM 9/15 1.1224
64 Thompson, William OBC 23:26 38.407 64/104 VBM 16/20 0.9272
65 Boily, Veronique  FC 23:33 38.217 65/104 SEF 3/3 1.1632
66 Marleau, Dianne  OBC/RWR 23:34 38.190 66/104 VBF 6/8 1.0235
67 Coldwell, Michael  ABC 23:39 38.055 67/104 VCM 16/27  
68 Redshaw, Russ  OBC 23:48 37.815 68/104 VCM 17/27  
69 Rivoche, Michael WQW 23:51 37.736 69/104 VCM 18/27 0.9689
70 Pavelich, John OBC 23:53 37.683 70/104 VCM 19/27 0.9937
71 Imbrogno, Giorgio  OBC 23:54 37.657 71/104 VDM 5/9 1.0576
72 Lacasse, André OBC 24:01 37.474 72/104 VCM 20/27 1.0835
73 Blagdon, Wendy  CYC 24:04 37.396 73/104 VBF 7/8 0.9876
74 Manjikian, Sevak OBC 24:07 37.319 74/104 VBM 17/20 1.3019
75 Hall, David  OBC 24:09 37.267 75/104 VBM 18/20 0.9774
76 Austen, Ian  OBC 24:10 37.241 76/104 VCM 21/27 1.0419
77 Pelletier, Luc OBC 24:20 36.986 77/104 VAM 10/15 1.0565
78 Jones, Amanda OBC 24:30 36.735 78/104 VAF 1/2 1.0604
79 Déry, Nicolas  OBC 24:34 36.635 79/104 VAM 11/15 0.9858
80 Simard, Martin EUR 24:36 36.585 80/104 VCM 22/27 1.0370
81 de Wit, Stephan OBC 24:51 36.217 81/104 VAM 12/15 1.0890
82 Liechti, Hans-Peter OBC 25:04 35.904 82/104 VCM 23/27 1.0302
83 Bertrand, Justin FC 25:08 35.809 83/104 VAM 13/15  
84 Bellemare, Guy OBC 25:09 35.785 84/104 VDM 6/9 1.0159
85 Ferlatte, Kari  FC 25:34 35.202 85/104 VAF 2/2 1.0078
86 Balint, John OBC 25:44 34.974 86/104 VDM 7/9 1.1594
87 Cooper, Dave --- 25:52 34.794 87/104 VBM 19/20 1.0531
88 Gillis, Ian OBC 25:55 34.727 88/104 VCM 24/27  
89 Guenette, Jean-Yves --- 25:57 34.682 89/104 VCM 25/27  
Guevremont, Marc OBC 25:57 34.682 89/104 VAM 14/15 0.9923
91 McInnis, Celia  ABC/CYF 26:02 34.571 91/104 VCF 1/1 0.9052
92 Desjardins, Marcel --- 26:09 34.417 92/104 VDM 8/9 1.0290
93 Shaffer, Gordon --- 26:12 34.351 93/104 VBM 20/20 1.0134
94 Portelance, Marianne OBC 26:20 34.177 94/104 CAF 1/1 0.9774
95 German, Jennifer OBC 26:40 33.750 95/104 VBF 8/8  
96 Ajersch, Mary  OBC 26:48 33.582 96/104 VEF 1/1 1.1042
97 St. John, Ronald OBC 27:08 33.170 97/104 VEM 3/3  
98 Cattan, Christian OBC 27:28 32.767 98/104 VAM 15/15  
99 Ramcharan, John OBC 27:30 32.727 99/104 VCM 26/27 1.0956
100 Trafford, Blake OBC 28:24 31.690 100/104 MIM 2/2 1.1906
Y 101 Caie, Kyle  OBC 30:22 29.638 101/104 PWM 1/1 1.1038
102 Wright, Geoffrey  OBC 31:50 28.272 102/104 VFM 1/1  
103 Farish, Neil  OBC/RWR DNF   103/104 VCM 27/27  
Paul, Richard  OBC DNF   103/104 VDM 9/9  
 
Average Speed of all of the above 102 finishes (1530km in 39:14:05):38.996
>>>Average of the Average Speeds for these 102 finishes39.392<<<
 

The number of data records shown above is 104
The server processing of your query took: 1 wallclock secs ( 0.14 usr + 0.12 sys = 0.26 CPU)

Thanks to our Helpers: Guy Bellemare, Avery Burdett, Allison McKay, Alex McKnight, Yves Portelance, Stephanie Rees.

     


Apr 22 (Good Friday)
May 3 (10km) May 5 May 10 (10km) May 12 May 17 May 17 (10km) May 19 May 24 May 24 (10km) May 26 May 31 May 31 (10km)
Jun 2 Jun 5 (40km) Jun 7 Jun 7 Jun 9 Jun 13 (10km) Jun 14 Jun 14 Jun 16 Jun 21 Jun 21 Jun 23 Jun 27 (10km) Jun 28 (Cancelled - Severe Thunderstorm Warning) Jun 28 (Cancelled - Severe Thunderstorm Warning) Jun 30
Jul 5 Jul 5
  Jul 7  
Jul 10 (40km) Jul 11 (10km) Jul 12 Jul 12 Jul 14 Jul 16 (18.1km) Jul 19 Jul 19 Jul 21 Jul 24 (40km) Jul 25 Jul 26 Jul 26 Jul 28
Aug 2 Aug 2 Aug 4 Aug 7 (40km) Aug 8 Aug 9 (cancelled - rain) Aug 9 Aug 11 Aug 14 (40km) Aug 15 Aug 16 Aug 16 Aug 18 Aug 23 Aug 23 Aug 25 Aug 30 Aug 30 (Invitational)
Sep 1 Sep 6 Sep 8 Sep 11 (40km) Sep 13 Sep 18 (40km) Sep 20 Sep 27

OTT Rankings
Best       Best by category
WTT Rankings for All Participants
5 Best Speeds (≥4 15km, ≤1 10km)     5 Best Speeds (≥4 15km, ≤1 10km) by category
OTT Best Three 15km Rankings
Overall     by category     age-Hcap Female   age-Hcap Male
[OWA]TT BAR Ranking
Overall     by category     Rider "Consistency-Graph"
ABC BAR Ranking
Overall     by category     Rider "Consistency-Graph"
Other years
TT Calculator All TT People All TT events
ABC Home VVV Home
CKAP GOLD MEDAL
Other Links

Note: OTT data from 2003 through 2006-Apr-14 and 2007-Apr-06-? and WTT from 2008-? is taken from the official OBC site.

Please send your comments and suggestions to: Celia McInnis
Copyright © 1998-2011 Celia McInnis. All rights reserved. Links are welcomed.